Time;durP1;ratioP1;P1;durP2;ratioP2;P2;SDS_P1;SDS_P2;PMS_P1;PMS_P2;Temp;Humidity;BMP_temperature;BMP_pressure;BME280_temperature;BME280_humidity;BME280_pressure;Samples;Min_cycle;Max_cycle;Signal;HPM_P1;HPM_P2
2022/01/16 00:01:57;;;;;;;386.00;274.20;;;;;;;25.38;37.13;102446.53;5125143;27;20035;-44
2022/01/16 00:04:24;;;;;;;382.38;273.77;;;;;;;25.38;37.34;102430.75;5125757;27;20031;-45
2022/01/16 00:06:53;;;;;;;380.98;272.17;;;;;;;25.39;37.36;102440.44;5126179;27;20107;-45
2022/01/16 00:09:23;;;;;;;381.92;271.42;;;;;;;25.39;37.28;102448.31;5125636;27;20047;-45
2022/01/16 00:11:55;;;;;;;389.55;278.08;;;;;;;25.39;37.25;102478.13;5107282;27;20042;-45
2022/01/16 00:14:30;;;;;;;392.83;279.33;;;;;;;25.43;36.92;102471.25;5125528;27;20070;-45
2022/01/16 00:16:58;;;;;;;387.80;275.05;;;;;;;25.40;37.30;102479.00;5106822;27;20476;-46
2022/01/16 00:19:27;;;;;;;392.10;283.35;;;;;;;25.39;37.23;102492.97;5124027;27;20399;-45
2022/01/16 00:21:55;;;;;;;392.38;281.15;;;;;;;25.38;37.34;102488.56;5125106;27;20270;-45
2022/01/16 00:24:23;;;;;;;395.48;283.70;;;;;;;25.38;37.19;102485.94;5125693;27;20031;-45
2022/01/16 00:26:52;;;;;;;399.52;285.77;;;;;;;25.34;37.08;102488.44;5125671;27;20140;-45
2022/01/16 00:29:19;;;;;;;388.75;281.98;;;;;;;25.30;37.02;102483.06;5125674;27;20029;-44
2022/01/16 00:31:48;;;;;;;395.17;286.08;;;;;;;25.28;37.48;102480.41;5124838;27;20039;-46
2022/01/16 00:34:17;;;;;;;380.48;280.20;;;;;;;25.32;37.17;102484.88;5124663;27;20351;-45
2022/01/16 00:36:45;;;;;;;393.38;287.20;;;;;;;25.33;37.36;102489.28;5106115;27;20034;-45
2022/01/16 00:39:15;;;;;;;393.33;288.05;;;;;;;25.31;37.01;102491.00;5125125;27;20118;-46
2022/01/16 00:41:43;;;;;;;394.50;288.10;;;;;;;25.27;37.42;102490.84;5124866;27;20043;-45
2022/01/16 00:44:12;;;;;;;393.17;288.77;;;;;;;25.26;37.61;102484.72;5125121;27;20531;-44
2022/01/16 00:46:41;;;;;;;404.05;288.02;;;;;;;25.24;37.43;102473.25;5124271;27;20039;-44
2022/01/16 00:49:10;;;;;;;400.08;290.70;;;;;;;25.25;37.24;102469.78;5125060;27;20380;-44
2022/01/16 00:51:38;;;;;;;400.45;291.63;;;;;;;25.21;37.21;102465.28;5106017;27;20436;-44
2022/01/16 00:54:08;;;;;;;394.08;289.13;;;;;;;25.19;37.51;102469.59;5124946;27;20411;-45
2022/01/16 00:56:36;;;;;;;399.85;290.17;;;;;;;25.20;37.55;102460.88;5124478;27;20103;-45
2022/01/16 00:59:05;;;;;;;396.58;288.50;;;;;;;25.20;37.62;102412.72;5106565;27;20031;-45
2022/01/16 01:01:33;;;;;;;409.02;295.10;;;;;;;25.24;37.51;102438.22;5106253;27;20037;-45
2022/01/16 01:04:02;;;;;;;399.55;288.58;;;;;;;25.16;37.25;102444.13;5125425;27;20029;-45
2022/01/16 01:06:31;;;;;;;394.98;287.52;;;;;;;25.20;37.11;102449.47;5124608;27;20139;-45
2022/01/16 01:08:59;;;;;;;392.38;285.02;;;;;;;25.12;37.24;102429.13;5124035;27;20144;-45
2022/01/16 01:11:30;;;;;;;386.80;285.13;;;;;;;25.11;37.23;102447.47;5123987;27;20129;-44
2022/01/16 01:14:16;;;;;;;390.42;287.08;;;;;;;25.07;37.76;102474.44;5124504;27;20034;-44
2022/01/16 01:16:56;;;;;;;397.85;287.15;;;;;;;25.10;37.33;102450.94;5124786;27;20495;-44
2022/01/16 01:19:29;;;;;;;399.05;292.90;;;;;;;25.10;37.34;102475.44;5124530;27;20038;-44
2022/01/16 01:21:58;;;;;;;394.98;285.30;;;;;;;25.06;37.73;102396.53;5123981;27;20023;-44
2022/01/16 01:24:29;;;;;;;402.45;290.70;;;;;;;25.05;37.41;102339.59;5124376;27;20320;-45
2022/01/16 01:27:23;;;;;;;390.65;287.38;;;;;;;25.05;37.16;102381.63;5124097;27;20043;-45
2022/01/16 01:29:50;;;;;;;395.67;289.55;;;;;;;24.98;37.55;102401.53;5123541;27;20055;-45
2022/01/16 01:32:19;;;;;;;381.42;286.05;;;;;;;24.98;37.39;102391.03;5124415;27;20051;-45
2022/01/16 01:34:47;;;;;;;398.98;283.95;;;;;;;24.98;37.53;102415.56;5123957;27;20570;-45
2022/01/16 01:37:16;;;;;;;395.33;290.75;;;;;;;24.96;37.50;102454.00;5123600;27;20530;-44
2022/01/16 01:39:44;;;;;;;417.92;305.70;;;;;;;24.96;37.88;102450.47;5124085;27;20030;-45
2022/01/16 01:42:14;;;;;;;406.38;298.42;;;;;;;24.88;37.94;102473.84;5124018;27;20083;-44
2022/01/16 01:51:05;;;;;;;405.65;297.48;;;;;;;24.92;37.56;102496.75;5114533;28;20493;-45
2022/01/16 01:53:07;;;;;;;407.05;302.38;;;;;;;24.87;38.06;102509.72;5113339;28;20074;-45
2022/01/16 01:55:35;;;;;;;421.85;310.08;;;;;;;24.88;38.11;102497.47;5123856;28;20031;-45
2022/01/16 01:58:04;;;;;;;416.85;304.45;;;;;;;24.85;37.83;102463.25;5123749;28;20380;-45
2022/01/16 02:00:32;;;;;;;410.48;311.00;;;;;;;24.91;37.77;102489.72;5123853;28;20077;-45
2022/01/16 02:05:30;;;;;;;433.83;318.95;;;;;;;24.88;37.78;102500.09;5123848;28;20054;-45
2022/01/16 02:07:59;;;;;;;417.45;310.48;;;;;;;24.80;38.30;102501.59;5123470;28;20030;-45
2022/01/16 02:10:28;;;;;;;427.17;314.48;;;;;;;24.83;38.22;102507.81;5123445;28;20151;-45
2022/01/16 02:13:01;;;;;;;412.67;309.60;;;;;;;24.82;38.21;102506.03;5106065;27;20450;-45
2022/01/16 02:32:13;;;;;;;441.33;325.02;;;;;;;24.84;37.90;102530.63;5127089;27;20024;-44
2022/01/16 02:34:42;;;;;;;430.50;321.73;;;;;;;24.80;37.98;102523.47;5126991;27;20038;-45
2022/01/16 02:37:13;;;;;;;419.45;315.77;;;;;;;24.67;38.61;102529.09;5127463;27;20414;-45
2022/01/16 02:39:47;;;;;;;427.13;316.65;;;;;;;24.83;37.99;102530.53;5127095;27;20038;-45
2022/01/16 02:42:17;;;;;;;420.27;320.07;;;;;;;24.83;37.95;102533.16;5109889;27;20027;-45
2022/01/16 02:45:00;;;;;;;432.23;322.52;;;;;;;24.77;38.30;102528.59;5127019;27;20271;-46
2022/01/16 02:47:29;;;;;;;432.35;326.85;;;;;;;24.80;38.24;102523.47;5126001;27;20067;-45
2022/01/16 02:50:01;;;;;;;441.45;332.33;;;;;;;24.76;38.43;102528.56;5125756;27;20041;-45
2022/01/16 02:52:30;;;;;;;431.42;323.75;;;;;;;24.72;38.25;102512.69;5126628;27;20969;-45
2022/01/16 02:55:00;;;;;;;421.17;312.13;;;;;;;24.71;37.95;102517.91;5127029;27;20038;-45
2022/01/16 02:57:29;;;;;;;436.48;325.70;;;;;;;24.69;38.08;102517.81;5127354;27;20023;-45
2022/01/16 02:59:58;;;;;;;414.10;312.38;;;;;;;24.65;38.38;102515.94;5127230;27;20031;-45
2022/01/16 03:02:27;;;;;;;437.95;330.45;;;;;;;24.66;38.25;102516.81;5126740;27;20016;-45
2022/01/16 03:04:56;;;;;;;426.60;313.50;;;;;;;24.63;38.13;102512.38;5126851;27;20355;-45
2022/01/16 03:07:25;;;;;;;449.67;325.98;;;;;;;24.65;38.09;102515.94;5126811;27;20469;-45
2022/01/16 03:13:01;;;;;;;442.02;330.85;;;;;;;24.60;38.20;102488.63;5115575;27;20602;-44
2022/01/16 03:15:30;;;;;;;429.65;326.52;;;;;;;24.66;38.22;102490.56;5126673;27;20087;-45
2022/01/16 03:23:18;;;;;;;439.08;326.33;;;;;;;24.57;38.52;102475.41;5116461;27;20142;-44
2022/01/16 03:25:47;;;;;;;429.58;323.35;;;;;;;24.49;38.71;102474.28;5126510;27;20369;-45
2022/01/16 03:28:17;;;;;;;433.05;325.38;;;;;;;24.51;38.77;102480.44;5126622;27;20373;-45
2022/01/16 03:30:46;;;;;;;435.88;323.20;;;;;;;24.54;38.51;102480.53;5126098;27;21097;-45
2022/01/16 03:33:15;;;;;;;442.63;326.20;;;;;;;24.55;38.74;102482.34;5125922;27;20038;-45
2022/01/16 03:35:45;;;;;;;434.88;322.55;;;;;;;24.54;38.65;102489.31;5126351;27;20468;-45
2022/01/16 03:38:13;;;;;;;408.67;305.70;;;;;;;24.53;38.54;102479.66;5126592;27;20095;-45
2022/01/16 03:40:43;;;;;;;426.02;323.77;;;;;;;24.60;38.64;102483.41;5125820;27;20079;-45
2022/01/16 03:43:13;;;;;;;436.52;330.77;;;;;;;24.56;38.47;102485.03;5126088;27;20031;-45
2022/01/16 03:45:44;;;;;;;442.20;324.30;;;;;;;24.57;38.51;102486.78;5126125;27;20041;-45
2022/01/16 03:48:13;;;;;;;440.33;329.85;;;;;;;24.58;38.68;102487.69;5126059;27;20286;-45
2022/01/16 03:50:42;;;;;;;438.55;330.25;;;;;;;24.54;38.40;102488.41;5125765;27;20028;-45
2022/01/16 03:53:10;;;;;;;432.15;326.80;;;;;;;24.52;38.56;102484.84;5125817;27;20027;-45
2022/01/16 03:55:38;;;;;;;443.42;333.88;;;;;;;24.54;38.80;102497.19;5126303;27;20066;-45
2022/01/16 03:58:07;;;;;;;439.23;335.27;;;;;;;24.51;38.55;102499.72;5125992;27;20121;-45
2022/01/16 04:00:35;;;;;;;450.17;337.35;;;;;;;24.48;38.65;102494.34;5126157;27;20106;-45
2022/01/16 04:03:04;;;;;;;452.08;339.60;;;;;;;24.43;39.12;102501.16;5125855;27;20080;-45
2022/01/16 04:05:32;;;;;;;458.50;338.98;;;;;;;24.40;38.80;102504.56;5107644;27;20445;-45
2022/01/16 04:08:02;;;;;;;444.23;337.35;;;;;;;24.49;38.75;102490.88;5125697;27;20035;-45
2022/01/16 04:10:31;;;;;;;457.90;349.80;;;;;;;24.46;38.89;102496.03;5125132;27;20427;-45
2022/01/16 04:12:59;;;;;;;439.00;331.73;;;;;;;24.47;38.60;102497.81;5125631;27;20118;-44
2022/01/16 04:15:32;;;;;;;444.15;342.73;;;;;;;24.48;38.78;102496.97;5125601;27;20635;-45
2022/01/16 04:18:02;;;;;;;459.35;346.15;;;;;;;24.50;39.00;102502.25;5125436;27;20024;-45
2022/01/16 04:20:31;;;;;;;450.20;344.67;;;;;;;24.52;39.12;102500.59;5097981;27;20513;-45
2022/01/16 04:23:00;;;;;;;450.85;344.58;;;;;;;24.49;38.97;102497.88;5125510;27;20087;-45
2022/01/16 04:25:28;;;;;;;441.85;340.85;;;;;;;24.46;38.85;102497.78;5125370;27;20488;-45
2022/01/16 04:27:57;;;;;;;453.63;352.60;;;;;;;24.48;38.68;102503.97;5125018;27;20486;-45
2022/01/16 04:30:26;;;;;;;454.45;348.92;;;;;;;24.45;38.78;102499.47;5125153;27;20031;-45
2022/01/16 04:32:55;;;;;;;455.38;343.42;;;;;;;24.52;38.95;102492.72;5124780;27;20031;-45
2022/01/16 04:35:23;;;;;;;463.92;352.40;;;;;;;24.45;39.15;102499.47;5124687;27;20035;-45
2022/01/16 04:37:52;;;;;;;446.55;335.88;;;;;;;24.43;38.76;102488.03;5106525;27;20422;-45
2022/01/16 04:40:22;;;;;;;452.98;352.45;;;;;;;24.47;39.00;102496.94;5124598;27;20156;-45
2022/01/16 04:45:37;;;;;;;457.35;347.83;;;;;;;24.53;38.70;102507.63;5118818;27;20070;-45
2022/01/16 04:48:06;;;;;;;451.15;340.83;;;;;;;24.52;38.59;102497.97;5124959;27;20396;-45
2022/01/16 04:50:35;;;;;;;459.40;347.77;;;;;;;24.49;38.82;102498.75;5125308;27;20023;-44
2022/01/16 04:53:04;;;;;;;451.48;342.45;;;;;;;24.47;38.72;102497.81;5124601;27;20042;-44
2022/01/16 04:55:32;;;;;;;452.75;347.08;;;;;;;24.47;38.76;102494.31;5124354;27;20024;-44
2022/01/16 04:58:01;;;;;;;455.50;348.42;;;;;;;24.39;39.24;102499.28;5106848;27;20027;-45
2022/01/16 05:00:30;;;;;;;449.10;349.77;;;;;;;24.35;39.09;102506.13;5124909;27;20035;-45
2022/01/16 05:02:57;;;;;;;447.27;341.20;;;;;;;24.43;39.02;102512.56;5124924;27;20046;-44
2022/01/16 05:05:26;;;;;;;465.30;354.45;;;;;;;24.38;38.97;102510.63;5089812;27;20046;-44
2022/01/16 05:07:54;;;;;;;451.45;348.35;;;;;;;24.45;39.38;102509.97;5105941;27;20031;-45
2022/01/16 05:10:23;;;;;;;469.02;357.05;;;;;;;24.40;38.92;102504.56;5124296;27;20055;-45
2022/01/16 05:12:53;;;;;;;464.02;356.58;;;;;;;24.37;39.29;102514.94;5124400;27;20424;-45
2022/01/16 05:18:09;;;;;;;478.80;356.00;;;;;;;24.31;39.54;102508.59;5113301;27;20089;-44
2022/01/16 05:20:37;;;;;;;459.05;355.17;;;;;;;24.30;39.36;102519.91;5123999;27;20046;-45
2022/01/16 05:23:06;;;;;;;456.55;350.00;;;;;;;24.41;39.21;102527.34;5124211;27;20065;-45
2022/01/16 05:25:35;;;;;;;466.10;352.08;;;;;;;24.37;39.18;102530.69;5124074;27;20030;-44
2022/01/16 05:28:04;;;;;;;441.42;337.83;;;;;;;24.38;39.01;102524.59;5124614;27;20083;-44
2022/01/16 05:30:33;;;;;;;456.33;353.55;;;;;;;24.35;39.08;102523.59;5123976;27;20194;-44
2022/01/16 05:33:01;;;;;;;446.88;347.92;;;;;;;24.33;39.15;102522.66;5124202;27;20051;-45
2022/01/16 05:35:29;;;;;;;440.95;343.80;;;;;;;24.32;39.48;102523.50;5123695;27;20028;-44
2022/01/16 05:37:58;;;;;;;467.48;355.38;;;;;;;24.20;39.14;102513.44;5106243;27;20369;-45
2022/01/16 05:40:27;;;;;;;456.80;351.17;;;;;;;24.35;39.44;102544.59;5123748;27;20027;-45
2022/01/16 05:42:55;;;;;;;465.85;357.02;;;;;;;24.32;39.21;102549.72;5124063;27;20031;-45
2022/01/16 05:45:24;;;;;;;473.95;351.73;;;;;;;24.31;39.62;102546.22;5124124;27;20027;-44
2022/01/16 05:47:53;;;;;;;450.23;345.45;;;;;;;24.34;39.12;102548.94;5122420;27;20074;-45
2022/01/16 05:50:22;;;;;;;451.20;349.27;;;;;;;24.33;39.17;102546.25;5124019;27;20035;-45
2022/01/16 05:52:51;;;;;;;469.73;356.77;;;;;;;24.28;39.59;102552.22;5123418;28;20135;-45
2022/01/16 05:55:20;;;;;;;464.38;353.95;;;;;;;24.39;39.14;102547.38;5123743;28;20110;-45
2022/01/16 05:57:49;;;;;;;459.23;349.75;;;;;;;24.33;39.08;102556.75;5123765;28;20091;-45
2022/01/16 06:00:18;;;;;;;448.05;343.80;;;;;;;24.30;39.11;102559.25;5123803;28;20027;-45
2022/01/16 06:02:47;;;;;;;465.58;359.00;;;;;;;24.28;39.17;102543.47;5123846;28;20033;-44
2022/01/16 06:05:16;;;;;;;461.75;358.63;;;;;;;24.38;39.09;102565.69;5123264;28;20084;-44
2022/01/16 06:07:50;;;;;;;454.25;347.40;;;;;;;24.37;39.06;102579.66;5123270;28;20080;-44
2022/01/16 06:10:19;;;;;;;477.02;356.73;;;;;;;24.33;39.25;102581.22;5123705;28;20512;-45
2022/01/16 06:12:48;;;;;;;465.75;351.58;;;;;;;24.26;39.43;102581.84;5123652;28;20035;-44
2022/01/16 06:15:16;;;;;;;456.50;351.05;;;;;;;24.34;39.09;102579.53;5122564;28;20032;-45
2022/01/16 06:17:45;;;;;;;459.25;348.05;;;;;;;24.33;39.50;102577.72;5122935;28;20038;-44
2022/01/16 06:20:15;;;;;;;473.23;354.38;;;;;;;24.28;39.58;102570.59;5123601;28;20376;-45
2022/01/16 06:22:44;;;;;;;451.45;341.67;;;;;;;24.30;39.25;102568.03;5123752;28;20738;-44
2022/01/16 06:25:14;;;;;;;457.25;349.80;;;;;;;24.30;39.16;102568.03;5123851;28;20083;-44
2022/01/16 06:27:42;;;;;;;456.88;347.10;;;;;;;24.31;39.48;102571.53;5123558;28;20484;-44
2022/01/16 06:30:12;;;;;;;447.63;343.77;;;;;;;24.28;39.44;102585.44;5081740;28;20034;-44
2022/01/16 06:32:40;;;;;;;463.33;355.75;;;;;;;24.31;39.62;102580.31;5123307;28;20476;-45
2022/01/16 06:35:10;;;;;;;459.75;347.92;;;;;;;24.33;39.40;102596.97;5123211;28;20038;-44
2022/01/16 06:37:39;;;;;;;442.60;338.85;;;;;;;24.37;39.17;102606.75;5123619;28;20019;-44
2022/01/16 06:40:08;;;;;;;456.75;346.02;;;;;;;24.38;39.02;102613.78;5123286;28;20544;-45
2022/01/16 06:42:37;;;;;;;456.95;342.40;;;;;;;24.33;39.56;102617.94;5123387;28;20016;-44
2022/01/16 06:45:07;;;;;;;449.50;342.92;;;;;;;24.35;39.58;102618.91;5104885;28;20027;-45
2022/01/16 06:47:36;;;;;;;443.98;338.77;;;;;;;24.34;39.30;102635.47;5123176;28;20468;-46
2022/01/16 06:50:05;;;;;;;452.27;342.88;;;;;;;24.34;39.67;102643.34;5123465;28;20033;-46
2022/01/16 06:52:33;;;;;;;465.67;346.05;;;;;;;24.40;39.47;102643.59;5123301;28;20035;-46
2022/01/16 06:55:02;;;;;;;452.00;341.92;;;;;;;24.38;39.09;102649.63;5123619;28;20404;-47
2022/01/16 06:57:30;;;;;;;450.48;343.70;;;;;;;24.30;39.32;102646.72;5123527;28;20780;-46
2022/01/16 06:59:58;;;;;;;447.50;338.73;;;;;;;24.31;39.26;102650.22;5125650;27;20472;-46
2022/01/16 07:02:27;;;;;;;464.08;346.05;;;;;;;24.28;39.29;102661.50;5127246;27;20027;-46
2022/01/16 07:04:55;;;;;;;454.95;341.95;;;;;;;24.31;39.22;102659.00;5127263;27;20023;-45
2022/01/16 07:07:24;;;;;;;447.08;341.08;;;;;;;24.30;39.55;102666.78;5126407;27;20480;-45
2022/01/16 07:09:52;;;;;;;458.33;346.30;;;;;;;24.29;39.71;102655.41;5126836;27;20108;-46
2022/01/16 07:12:20;;;;;;;437.88;337.52;;;;;;;24.33;39.35;102670.41;5126456;27;20042;-45
2022/01/16 07:14:49;;;;;;;454.95;343.48;;;;;;;24.34;39.29;102664.31;5126103;27;20023;-47
2022/01/16 07:17:17;;;;;;;451.25;340.65;;;;;;;24.28;39.71;102665.00;5126881;27;20136;-45
2022/01/16 07:19:46;;;;;;;443.10;338.52;;;;;;;24.32;39.22;102670.38;5127128;27;20035;-46
2022/01/16 07:22:14;;;;;;;452.60;341.42;;;;;;;24.30;39.31;102667.69;5126803;27;20020;-45
2022/01/16 07:24:42;;;;;;;460.48;342.45;;;;;;;24.32;39.59;102666.03;5101288;27;20479;-45
2022/01/16 07:27:11;;;;;;;452.60;340.85;;;;;;;24.31;39.57;102671.19;5126213;27;20399;-45
2022/01/16 07:29:39;;;;;;;443.88;334.92;;;;;;;24.26;39.51;102673.66;5126536;27;20072;-47
2022/01/16 07:32:08;;;;;;;445.80;338.17;;;;;;;24.26;39.50;102685.00;5108416;27;20049;-46
2022/01/16 07:34:36;;;;;;;452.80;335.08;;;;;;;24.30;39.95;102682.53;5126173;27;20015;-46
2022/01/16 07:37:05;;;;;;;446.25;340.48;;;;;;;24.33;39.56;102687.88;5126167;27;20080;-46
2022/01/16 07:39:33;;;;;;;450.05;335.50;;;;;;;24.28;39.45;102677.22;5126680;27;20026;-45
2022/01/16 07:42:02;;;;;;;454.58;339.13;;;;;;;24.31;39.62;102674.72;5126249;27;20034;-45
2022/01/16 07:44:30;;;;;;;449.10;337.90;;;;;;;24.30;39.52;102682.53;5125301;27;20556;-46
2022/01/16 07:46:59;;;;;;;446.23;337.40;;;;;;;24.27;39.61;102675.44;5125162;27;20042;-45
2022/01/16 07:49:28;;;;;;;457.17;341.70;;;;;;;24.31;39.57;102672.09;5125739;27;20247;-45
2022/01/16 07:51:56;;;;;;;455.30;335.52;;;;;;;24.30;39.64;102678.19;5125682;27;20292;-45
2022/01/16 07:54:24;;;;;;;444.45;338.52;;;;;;;24.27;39.79;102678.94;5125429;27;20484;-45
2022/01/16 07:56:53;;;;;;;443.00;336.90;;;;;;;24.36;39.33;102682.78;5126034;27;20038;-46
2022/01/16 07:59:22;;;;;;;446.92;334.30;;;;;;;24.29;39.31;102673.78;5126224;27;20023;-45
2022/01/16 08:01:50;;;;;;;438.63;333.13;;;;;;;24.26;39.87;102681.50;5107623;27;20369;-45
2022/01/16 08:04:19;;;;;;;446.70;335.13;;;;;;;24.20;39.92;102683.88;5107143;27;20405;-45
2022/01/16 08:06:47;;;;;;;452.20;335.55;;;;;;;24.28;39.43;102682.47;5125801;27;20027;-47
2022/01/16 08:09:15;;;;;;;438.88;328.55;;;;;;;24.26;39.37;102692.88;5125340;27;20058;-45
2022/01/16 08:11:43;;;;;;;438.85;329.60;;;;;;;24.29;39.71;102689.50;5092980;27;20110;-46
2022/01/16 08:14:11;;;;;;;442.48;332.85;;;;;;;24.26;40.06;102699.88;5124961;27;20031;-45
2022/01/16 08:16:40;;;;;;;448.98;328.92;;;;;;;24.31;39.89;102695.72;5098017;27;20497;-45
2022/01/16 08:19:09;;;;;;;448.33;337.08;;;;;;;24.32;39.52;102693.97;5107284;27;20129;-45
2022/01/16 08:21:38;;;;;;;452.05;333.65;;;;;;;24.26;40.04;102698.13;5125041;27;20023;-45
2022/01/16 08:24:06;;;;;;;442.55;332.20;;;;;;;24.24;39.86;102699.78;5107020;27;20110;-45
2022/01/16 08:26:35;;;;;;;456.25;338.25;;;;;;;24.18;40.15;102704.81;5125440;27;20048;-44
2022/01/16 08:29:04;;;;;;;441.35;331.63;;;;;;;24.21;40.22;102719.75;5125203;27;20480;-44
2022/01/16 08:31:33;;;;;;;442.75;328.88;;;;;;;24.26;39.72;102724.34;5125298;27;20059;-46
2022/01/16 08:34:02;;;;;;;439.08;331.63;;;;;;;24.24;39.87;102727.75;5125567;27;20019;-45
2022/01/16 08:36:31;;;;;;;432.38;325.90;;;;;;;24.22;40.30;102737.28;5125340;27;20023;-44
2022/01/16 08:39:00;;;;;;;451.27;333.83;;;;;;;24.22;40.19;102735.59;5124804;27;20452;-45
2022/01/16 08:41:32;;;;;;;447.58;333.55;;;;;;;24.23;39.98;102737.38;5124969;27;20050;-45
2022/01/16 08:44:01;;;;;;;443.92;332.17;;;;;;;24.26;40.23;102733.97;5124569;27;20031;-45
2022/01/16 08:46:29;;;;;;;444.80;333.40;;;;;;;24.30;40.05;102746.38;5124858;27;20467;-46
2022/01/16 08:48:58;;;;;;;441.42;329.88;;;;;;;24.26;40.18;102752.31;5124949;27;20080;-45
2022/01/16 08:51:27;;;;;;;453.33;333.60;;;;;;;24.21;40.15;102761.72;5124609;27;20034;-46
2022/01/16 08:53:55;;;;;;;441.50;329.45;;;;;;;24.23;40.21;102754.81;5124704;27;20023;-45
2022/01/16 08:56:24;;;;;;;446.73;327.80;;;;;;;24.21;39.89;102752.16;5124464;27;20117;-46
2022/01/16 08:58:52;;;;;;;451.05;327.80;;;;;;;24.19;40.10;102759.06;5124214;27;20064;-45
2022/01/16 09:01:21;;;;;;;458.05;329.58;;;;;;;24.25;40.13;102758.41;5124869;27;20031;-45
2022/01/16 09:03:50;;;;;;;444.17;324.30;;;;;;;24.25;39.99;102755.78;5124177;27;20031;-45
2022/01/16 09:06:19;;;;;;;442.33;328.70;;;;;;;24.23;40.39;102760.97;5106623;27;20084;-46
2022/01/16 09:08:48;;;;;;;440.88;328.20;;;;;;;24.23;40.30;102765.31;5124890;27;20286;-46
2022/01/16 09:11:16;;;;;;;438.45;326.65;;;;;;;24.25;40.35;102771.50;5084021;28;20060;-45
2022/01/16 09:13:45;;;;;;;448.25;331.05;;;;;;;24.26;40.06;102773.31;5083989;28;20040;-45
2022/01/16 09:16:13;;;;;;;456.83;332.60;;;;;;;24.29;40.23;102778.69;5083789;28;20028;-45
2022/01/16 09:18:42;;;;;;;454.30;335.52;;;;;;;24.29;40.16;102781.31;5082320;28;20374;-45
2022/01/16 09:21:13;;;;;;;451.90;331.70;;;;;;;24.21;40.15;102791.47;5083886;28;20040;-45
2022/01/16 09:23:41;;;;;;;453.85;336.88;;;;;;;24.21;40.32;102798.44;5082132;28;20142;-46
2022/01/16 09:26:10;;;;;;;446.33;332.05;;;;;;;24.25;40.22;102800.38;5083130;28;20371;-45
2022/01/16 09:28:38;;;;;;;461.60;335.38;;;;;;;24.26;40.23;102807.41;5083875;28;20028;-46
2022/01/16 09:31:07;;;;;;;451.48;330.90;;;;;;;24.22;40.31;102810.72;5083757;28;20020;-44
2022/01/16 09:33:36;;;;;;;444.95;333.98;;;;;;;24.22;40.05;102814.25;5083635;28;20031;-45
2022/01/16 09:36:05;;;;;;;446.00;333.15;;;;;;;24.24;40.56;102828.28;5083536;28;20044;-45
2022/01/16 09:38:34;;;;;;;455.23;337.42;;;;;;;24.21;40.48;102824.66;5083312;28;20050;-45
2022/01/16 09:41:04;;;;;;;444.10;329.38;;;;;;;24.16;40.22;102829.72;5083586;28;20046;-45
2022/01/16 09:44:07;;;;;;;443.67;324.80;;;;;;;24.21;40.32;102822.03;5083780;28;20035;-45
2022/01/16 09:46:36;;;;;;;447.70;333.08;;;;;;;24.20;40.27;102828.13;5083944;28;20031;-45
2022/01/16 09:49:04;;;;;;;448.58;334.60;;;;;;;24.18;40.46;102824.53;5083470;28;20024;-45
2022/01/16 09:51:33;;;;;;;454.52;333.60;;;;;;;24.19;40.28;102828.94;5067977;28;20032;-45
2022/01/16 09:54:02;;;;;;;460.67;339.33;;;;;;;24.15;40.55;102834.91;5083484;28;20054;-45
2022/01/16 09:56:30;;;;;;;456.88;335.30;;;;;;;24.17;40.50;102831.50;5082593;28;20024;-45
2022/01/16 09:58:59;;;;;;;453.27;338.17;;;;;;;24.17;40.28;102841.09;5083402;28;20040;-45
2022/01/16 10:01:27;;;;;;;465.70;337.58;;;;;;;24.20;40.52;102838.59;5083132;28;20976;-45
2022/01/16 10:03:56;;;;;;;450.30;336.42;;;;;;;24.23;40.24;102846.59;5083645;28;20020;-45
2022/01/16 10:06:25;;;;;;;463.02;339.90;;;;;;;24.24;40.55;102854.53;5083461;28;20078;-45
2022/01/16 10:08:55;;;;;;;459.45;348.52;;;;;;;24.25;40.18;102856.31;5084168;28;20111;-45
2022/01/16 10:11:30;;;;;;;463.65;346.40;;;;;;;24.21;40.45;102867.53;5124238;28;20476;-45
2022/01/16 10:14:02;;;;;;;457.70;341.52;;;;;;;24.19;40.31;102853.47;5123280;28;20035;-44
2022/01/16 10:16:37;;;;;;;460.55;347.08;;;;;;;24.23;40.19;102867.59;5122753;28;20028;-44
2022/01/16 10:19:05;;;;;;;;;;;;;;;24.34;40.43;102871.53;5124039;28;20563;-45
2022/01/16 10:21:37;;;;;;;464.77;348.98;;;;;;;24.29;40.26;102867.84;5105487;28;19915;-44
2022/01/16 10:24:26;;;;;;;474.80;352.33;;;;;;;24.30;40.28;102876.59;5124287;28;20092;-44
2022/01/16 10:27:14;;;;;;;468.63;352.88;;;;;;;24.24;40.61;102877.25;5116343;28;20089;-45
2022/01/16 10:29:45;;;;;;;476.52;354.20;;;;;;;24.18;40.54;102869.09;5114502;28;20495;-44
2022/01/16 10:32:25;;;;;;;474.30;355.23;;;;;;;24.17;40.58;102883.03;5105536;28;20031;-44
2022/01/16 10:34:56;;;;;;;472.58;351.98;;;;;;;24.19;40.47;102884.00;5125822;27;20139;-45
2022/01/16 10:37:29;;;;;;;476.40;352.92;;;;;;;24.22;40.51;102885.06;5109346;27;20034;-44
2022/01/16 10:39:58;;;;;;;488.70;359.60;;;;;;;24.22;40.75;102885.06;5127787;27;20110;-44
2022/01/16 10:42:27;;;;;;;470.98;351.65;;;;;;;24.21;40.45;102893.75;5127513;27;20118;-44
2022/01/16 10:44:58;;;;;;;473.20;355.60;;;;;;;24.22;40.32;102882.44;5126946;27;20067;-44
2022/01/16 10:47:37;;;;;;;483.35;355.70;;;;;;;24.22;40.37;102886.78;5127573;27;20463;-45
2022/01/16 10:50:08;;;;;;;471.35;353.50;;;;;;;24.25;40.55;102879.03;5127586;27;20019;-45
2022/01/16 10:52:58;;;;;;;476.00;354.77;;;;;;;24.25;40.63;102887.78;5127402;27;20063;-45
2022/01/16 10:55:47;;;;;;;487.13;363.30;;;;;;;24.24;40.42;102891.25;5127290;27;20023;-45
2022/01/16 10:58:18;;;;;;;487.30;365.60;;;;;;;24.26;40.91;102891.31;5100541;27;20069;-45
2022/01/16 11:00:54;;;;;;;478.52;354.58;;;;;;;24.25;40.63;102893.03;5127309;27;20035;-45
2022/01/16 11:03:24;;;;;;;479.42;359.77;;;;;;;24.24;40.49;102887.72;5127019;27;20388;-46
2022/01/16 11:05:53;;;;;;;469.52;359.08;;;;;;;24.27;40.35;102887.88;5127095;27;20027;-45
2022/01/16 11:08:23;;;;;;;475.25;352.00;;;;;;;24.25;40.87;102887.78;5126814;27;20294;-45
2022/01/16 11:10:55;;;;;;;469.38;351.50;;;;;;;24.22;40.67;102885.06;5126838;27;20165;-45
2022/01/16 11:13:29;;;;;;;467.67;349.40;;;;;;;24.23;40.69;102885.94;5101611;27;20061;-45
2022/01/16 11:16:03;;;;;;;475.05;348.73;;;;;;;24.29;40.60;102883.59;5127291;27;20054;-45
2022/01/16 11:18:35;;;;;;;464.90;354.30;;;;;;;24.27;40.92;102880.00;5126371;27;20030;-45
2022/01/16 11:21:19;;;;;;;473.30;352.52;;;;;;;24.27;40.83;102880.00;5126895;27;20027;-45
2022/01/16 11:26:34;;;;;;;465.42;346.85;;;;;;;24.27;40.82;102888.75;5104930;27;20050;-45
2022/01/16 11:29:02;;;;;;;471.42;351.63;;;;;;;24.24;40.68;102886.00;5125923;27;20119;-44
2022/01/16 11:31:31;;;;;;;466.25;352.13;;;;;;;24.25;41.07;102892.16;5126206;27;20041;-46
2022/01/16 11:34:00;;;;;;;469.42;352.98;;;;;;;24.23;40.83;102899.06;5081272;27;20031;-45
2022/01/16 11:36:29;;;;;;;451.98;335.80;;;;;;;24.23;40.84;102894.72;5126462;27;20031;-47
2022/01/16 11:39:00;;;;;;;462.05;346.35;;;;;;;24.26;40.78;102891.31;5126430;27;20110;-45
2022/01/16 11:41:37;;;;;;;458.63;339.45;;;;;;;24.25;40.73;102894.78;5126514;27;20045;-47
2022/01/16 11:44:08;;;;;;;450.15;332.55;;;;;;;24.24;41.09;102895.59;5126794;27;20111;-45
2022/01/16 11:46:41;;;;;;;446.63;329.27;;;;;;;24.27;40.92;102893.13;5126094;27;20031;-46
2022/01/16 11:49:17;;;;;;;433.80;322.25;;;;;;;24.21;41.06;102888.50;5107827;27;20432;-45